createdAt,value
2019-06-27T00:01:52.896Z,12.53
2019-06-27T00:04:33.260Z,11.53
2019-06-27T00:07:10.814Z,11.50
2019-06-27T00:09:52.282Z,12.43
2019-06-27T00:12:30.542Z,12.73
2019-06-27T00:15:06.220Z,12.27
2019-06-27T00:17:42.744Z,12.33
2019-06-27T00:20:19.395Z,11.83
2019-06-27T00:22:54.431Z,12.53
2019-06-27T00:25:32.288Z,11.87
2019-06-27T00:28:02.627Z,12.03
2019-06-27T00:30:38.408Z,12.00
2019-06-27T00:33:19.279Z,11.93
2019-06-27T00:35:58.565Z,12.30
2019-06-27T00:38:36.170Z,11.43
2019-06-27T00:41:13.086Z,10.70
2019-06-27T00:43:50.642Z,11.67
2019-06-27T00:46:21.667Z,11.53
2019-06-27T00:48:59.986Z,11.83
2019-06-27T00:51:40.135Z,11.67
2019-06-27T00:54:19.928Z,11.27
2019-06-27T00:57:09.501Z,11.47
2019-06-27T00:59:35.470Z,11.80
2019-06-27T01:02:12.759Z,12.00
2019-06-27T01:04:51.041Z,11.67
2019-06-27T01:07:29.494Z,11.43
2019-06-27T01:10:12.905Z,11.13
2019-06-27T01:12:49.898Z,10.57
2019-06-27T01:15:28.826Z,11.30
2019-06-27T01:18:10.210Z,10.57
2019-06-27T01:21:05.169Z,10.90
2019-06-27T01:23:39.379Z,11.00
2019-06-27T01:26:13.927Z,10.80
2019-06-27T01:28:51.387Z,10.50
2019-06-27T01:31:29.987Z,11.63
2019-06-27T01:34:10.772Z,10.33
2019-06-27T01:36:51.531Z,10.40
2019-06-27T01:39:26.298Z,10.77
2019-06-27T01:42:05.092Z,10.27
2019-06-27T01:44:46.177Z,10.60
2019-06-27T01:47:25.106Z,10.97
2019-06-27T01:50:03.267Z,10.13
2019-06-27T01:52:40.375Z,10.37
2019-06-27T01:55:18.814Z,10.20
2019-06-27T01:57:53.425Z,11.43
2019-06-27T02:00:33.106Z,10.33
2019-06-27T02:03:15.095Z,10.93
2019-06-27T02:05:52.562Z,11.00
2019-06-27T02:08:30.593Z,11.33
2019-06-27T02:11:10.918Z,10.57
2019-06-27T02:13:50.151Z,10.43
2019-06-27T02:16:28.736Z,10.83
2019-06-27T02:19:07.753Z,10.30
2019-06-27T02:21:44.322Z,10.53
2019-06-27T02:24:23.963Z,10.37
2019-06-27T02:27:04.551Z,9.93
2019-06-27T02:29:42.291Z,10.53
2019-06-27T02:32:19.920Z,11.00
2019-06-27T02:34:56.680Z,11.33
2019-06-27T02:37:34.679Z,11.53
2019-06-27T02:40:13.264Z,10.33
2019-06-27T02:42:53.269Z,10.90
2019-06-27T02:45:22.187Z,10.43
2019-06-27T02:47:59.517Z,10.30
2019-06-27T02:50:33.591Z,9.97
2019-06-27T02:53:11.291Z,9.63
2019-06-27T02:55:48.034Z,10.00
2019-06-27T02:58:30.942Z,9.90
2019-06-27T03:00:57.137Z,9.70
2019-06-27T03:03:32.596Z,10.40
2019-06-27T03:06:06.760Z,9.77
2019-06-27T03:08:44.827Z,9.43
2019-06-27T03:11:23.850Z,10.43
2019-06-27T03:13:59.503Z,10.43
2019-06-27T03:16:42.648Z,10.30
2019-06-27T03:19:23.167Z,10.40
2019-06-27T03:22:05.829Z,9.20
2019-06-27T03:24:44.394Z,9.73
2019-06-27T03:27:22.226Z,9.83
2019-06-27T03:30:02.860Z,10.17
2019-06-27T03:32:42.839Z,9.43
2019-06-27T03:35:18.151Z,9.57
2019-06-27T03:37:54.714Z,10.17
2019-06-27T03:40:31.380Z,10.27
2019-06-27T03:43:00.785Z,9.47
2019-06-27T03:45:35.519Z,9.80
2019-06-27T03:48:15.521Z,11.20
2019-06-27T03:50:55.851Z,10.17
2019-06-27T03:53:33.264Z,9.73
2019-06-27T03:56:08.287Z,9.63
2019-06-27T03:58:47.132Z,10.30
2019-06-27T04:01:21.240Z,10.23
2019-06-27T04:03:59.523Z,10.10
2019-06-27T04:06:39.160Z,10.80
2019-06-27T04:09:17.354Z,10.40
2019-06-27T04:11:51.702Z,10.13
2019-06-27T04:14:28.430Z,10.97
2019-06-27T04:17:05.267Z,10.30
2019-06-27T04:19:43.941Z,10.67
2019-06-27T04:22:18.063Z,11.13
2019-06-27T04:24:55.519Z,10.57
2019-06-27T04:27:33.936Z,11.03
2019-06-27T04:30:13.264Z,9.93
2019-06-27T04:32:50.575Z,10.30
2019-06-27T04:35:28.237Z,9.93
2019-06-27T04:38:09.800Z,10.77
2019-06-27T04:40:48.489Z,10.07
2019-06-27T04:43:25.171Z,10.73
2019-06-27T04:46:03.126Z,10.13
2019-06-27T04:48:38.990Z,10.07
2019-06-27T04:51:20.117Z,10.50
2019-06-27T04:53:56.765Z,9.93
2019-06-27T04:56:35.653Z,9.73
2019-06-27T04:59:04.453Z,9.80
2019-06-27T05:01:43.268Z,9.60
2019-06-27T05:04:18.219Z,9.17
2019-06-27T05:06:55.937Z,9.10
2019-06-27T05:09:35.476Z,9.10
2019-06-27T05:12:16.009Z,9.57
2019-06-27T05:14:55.363Z,9.17
2019-06-27T05:17:31.914Z,9.00
2019-06-27T05:20:09.961Z,9.80
2019-06-27T05:22:47.110Z,9.13
2019-06-27T05:25:20.723Z,8.80
2019-06-27T05:27:57.543Z,9.07
2019-06-27T05:30:34.168Z,8.53
2019-06-27T05:33:12.777Z,8.83
2019-06-27T05:35:50.642Z,8.97
2019-06-27T05:38:26.072Z,8.87
2019-06-27T05:41:00.882Z,8.60
2019-06-27T05:43:39.662Z,8.67
2019-06-27T05:46:17.256Z,9.20
2019-06-27T05:48:57.848Z,8.80
2019-06-27T05:51:33.274Z,9.03
2019-06-27T05:54:08.964Z,9.10
2019-06-27T05:56:44.475Z,8.40
2019-06-27T05:59:19.479Z,8.43
2019-06-27T06:01:57.266Z,8.63
2019-06-27T06:04:33.235Z,8.40
2019-06-27T06:07:13.145Z,7.93
2019-06-27T06:09:49.129Z,8.60
2019-06-27T06:12:23.267Z,8.77
2019-06-27T06:15:00.591Z,8.23
2019-06-27T06:17:37.920Z,8.40
2019-06-27T06:20:11.607Z,8.93
2019-06-27T06:22:50.598Z,8.83
2019-06-27T06:25:25.785Z,9.20
2019-06-27T06:27:56.213Z,8.57
2019-06-27T06:30:43.927Z,9.10
2019-06-27T06:33:19.453Z,9.07
2019-06-27T06:35:55.918Z,9.40
2019-06-27T06:38:34.632Z,8.60
2019-06-27T06:41:12.145Z,9.07
2019-06-27T06:43:47.120Z,9.20
2019-06-27T06:46:26.387Z,8.97
2019-06-27T06:49:03.265Z,9.37
2019-06-27T06:51:42.464Z,10.00
2019-06-27T06:54:20.456Z,9.93
2019-06-27T06:57:01.955Z,10.00
2019-06-27T06:59:39.220Z,9.17
2019-06-27T07:02:19.072Z,10.03
2019-06-27T07:04:52.583Z,10.03
2019-06-27T07:07:28.834Z,9.50
2019-06-27T07:10:04.318Z,9.47
2019-06-27T07:12:41.170Z,9.57
2019-06-27T07:15:19.551Z,9.17
2019-06-27T07:17:56.221Z,9.37
2019-06-27T07:20:35.225Z,9.87
2019-06-27T07:23:12.274Z,9.30
2019-06-27T07:25:52.251Z,10.03
2019-06-27T07:28:28.336Z,9.43
2019-06-27T07:31:17.356Z,10.00
2019-06-27T07:33:42.985Z,9.83
2019-06-27T07:36:13.267Z,10.40
2019-06-27T07:38:53.265Z,9.83
2019-06-27T07:41:28.096Z,10.27
2019-06-27T07:44:03.757Z,10.23
2019-06-27T07:46:42.635Z,10.47
2019-06-27T07:49:22.422Z,10.47
2019-06-27T07:51:59.439Z,10.70
2019-06-27T07:54:40.062Z,10.00
2019-06-27T07:57:20.174Z,10.83
2019-06-27T08:00:03.265Z,10.47
2019-06-27T08:02:40.371Z,10.47
2019-06-27T08:05:18.251Z,10.13
2019-06-27T08:07:55.125Z,10.43
2019-06-27T08:10:31.796Z,10.87
2019-06-27T08:13:11.363Z,10.77
2019-06-27T08:15:50.928Z,11.43
2019-06-27T08:18:28.182Z,11.40
2019-06-27T08:21:09.751Z,10.90
2019-06-27T08:23:49.144Z,10.87
2019-06-27T08:26:29.522Z,10.27
2019-06-27T08:29:04.581Z,10.97
2019-06-27T08:31:51.346Z,11.43
2019-06-27T08:34:21.271Z,11.90
2019-06-27T08:36:59.789Z,11.13
2019-06-27T08:39:36.562Z,11.57
2019-06-27T08:42:17.050Z,11.00
2019-06-27T08:44:53.269Z,12.07
2019-06-27T08:47:30.301Z,11.43
2019-06-27T08:50:11.113Z,10.90
2019-06-27T08:52:46.842Z,10.30
2019-06-27T08:55:26.407Z,11.17
2019-06-27T08:58:02.518Z,11.50
2019-06-27T09:00:45.743Z,11.73
2019-06-27T09:03:17.132Z,11.60
2019-06-27T09:05:58.734Z,11.40
2019-06-27T09:08:38.638Z,11.33
2019-06-27T09:11:15.170Z,12.13
2019-06-27T09:13:53.024Z,11.53
2019-06-27T09:16:30.809Z,10.30
2019-06-27T09:19:12.084Z,11.03
2019-06-27T09:21:50.190Z,11.13
2019-06-27T09:24:27.774Z,11.60
2019-06-27T09:27:08.699Z,11.43
2019-06-27T09:29:48.719Z,11.07
2019-06-27T09:32:31.698Z,11.30
2019-06-27T09:35:11.325Z,10.60
2019-06-27T09:37:49.524Z,10.57
2019-06-27T09:40:31.295Z,11.50
2019-06-27T09:43:13.267Z,11.30
2019-06-27T09:45:49.343Z,12.10
2019-06-27T09:48:25.963Z,10.57
2019-06-27T09:51:02.826Z,10.40
2019-06-27T09:53:40.929Z,10.67
2019-06-27T09:56:19.636Z,10.17
2019-06-27T09:58:59.530Z,10.40
2019-06-27T10:01:37.191Z,10.60
2019-06-27T10:04:13.267Z,10.77
2019-06-27T10:06:49.595Z,10.70
2019-06-27T10:09:28.419Z,10.17
2019-06-27T10:12:07.580Z,10.73
2019-06-27T10:14:46.198Z,11.00
2019-06-27T10:17:24.878Z,11.20
2019-06-27T10:20:03.267Z,11.43
2019-06-27T10:22:38.219Z,11.40
2019-06-27T10:25:17.013Z,12.63
2019-06-27T10:27:58.426Z,12.37
2019-06-27T10:30:37.219Z,11.90
2019-06-27T10:33:15.649Z,12.67
2019-06-27T10:35:55.878Z,13.33
2019-06-27T10:38:37.922Z,12.87
2019-06-27T10:41:16.117Z,13.53
2019-06-27T10:43:52.271Z,14.87
2019-06-27T10:46:31.909Z,15.33
2019-06-27T10:49:08.478Z,15.47
2019-06-27T10:51:45.806Z,14.33
2019-06-27T10:54:21.077Z,14.13
2019-06-27T10:56:57.821Z,13.53
2019-06-27T10:59:26.777Z,15.07
2019-06-27T11:02:01.524Z,14.90
2019-06-27T11:04:36.524Z,14.50
2019-06-27T11:07:14.738Z,15.87
2019-06-27T11:09:50.281Z,15.73
2019-06-27T11:12:34.426Z,13.73
2019-06-27T11:15:11.185Z,14.93
2019-06-27T11:17:46.701Z,14.60
2019-06-27T11:20:23.106Z,15.17
2019-06-27T11:23:01.589Z,14.90
2019-06-27T11:25:44.969Z,14.60
2019-06-27T11:28:21.092Z,14.93
2019-06-27T11:30:59.040Z,14.13
2019-06-27T11:33:36.929Z,12.37
2019-06-27T11:36:14.456Z,13.87
2019-06-27T11:38:53.196Z,13.73
2019-06-27T11:41:29.525Z,14.57
2019-06-27T11:44:11.099Z,13.80
2019-06-27T11:46:46.621Z,12.90
2019-06-27T11:49:24.855Z,15.03
2019-06-27T11:52:05.580Z,14.67
2019-06-27T11:54:43.425Z,12.93
2019-06-27T11:57:19.099Z,13.23
2019-06-27T11:59:57.543Z,13.30
2019-06-27T12:02:37.014Z,13.00
2019-06-27T12:05:14.035Z,13.77
2019-06-27T12:07:52.434Z,13.97
2019-06-27T12:10:33.290Z,13.60
2019-06-27T12:13:09.339Z,14.20
2019-06-27T12:15:51.745Z,13.30
2019-06-27T12:18:31.614Z,12.53
2019-06-27T12:21:14.086Z,12.87
2019-06-27T12:23:50.209Z,13.93
2019-06-27T12:26:27.941Z,13.90
2019-06-27T12:29:06.403Z,14.67
2019-06-27T12:31:51.334Z,15.40
2019-06-27T12:34:29.700Z,15.07
2019-06-27T12:37:08.842Z,15.47
2019-06-27T12:39:43.961Z,16.52
2019-06-27T12:42:31.603Z,17.10
2019-06-27T12:44:59.610Z,16.13
2019-06-27T12:47:36.065Z,15.63
2019-06-27T12:50:13.044Z,17.23
2019-06-27T12:52:52.474Z,16.60
2019-06-27T12:55:33.971Z,15.60
2019-06-27T12:58:13.235Z,15.07
2019-06-27T13:00:50.377Z,15.30
2019-06-27T13:03:29.170Z,15.50
2019-06-27T13:06:09.910Z,16.15
2019-06-27T13:08:47.144Z,15.30
2019-06-27T13:11:21.857Z,14.93
2019-06-27T13:13:55.856Z,15.30
2019-06-27T13:16:36.375Z,14.07
2019-06-27T13:19:12.184Z,13.83
2019-06-27T13:21:52.458Z,14.30
2019-06-27T13:24:29.895Z,14.10
2019-06-27T13:27:08.119Z,14.27
2019-06-27T13:29:44.573Z,13.78
2019-06-27T13:32:25.569Z,13.45
2019-06-27T13:35:02.624Z,13.80
2019-06-27T13:37:38.420Z,14.10
2019-06-27T13:40:18.607Z,13.22
2019-06-27T13:42:56.108Z,14.05
2019-06-27T13:45:39.922Z,15.33
2019-06-27T13:48:17.240Z,15.30
2019-06-27T13:50:57.806Z,15.25
2019-06-27T13:53:37.756Z,14.75
2019-06-27T13:56:19.297Z,14.60
2019-06-27T13:58:57.688Z,15.18
2019-06-27T14:01:39.310Z,14.45
2019-06-27T14:04:16.662Z,14.25
2019-06-27T14:06:59.458Z,14.58
2019-06-27T14:09:51.054Z,15.70
2019-06-27T14:12:16.884Z,15.00
2019-06-27T14:14:59.657Z,16.02
2019-06-27T14:17:33.166Z,15.75
2019-06-27T14:20:12.702Z,16.48
2019-06-27T14:22:47.222Z,15.60
2019-06-27T14:25:19.179Z,15.63
2019-06-27T14:27:54.173Z,15.03
2019-06-27T14:30:33.276Z,15.48
2019-06-27T14:33:13.265Z,15.53
2019-06-27T14:35:53.265Z,16.62
2019-06-27T14:38:30.748Z,15.93
2019-06-27T14:41:07.383Z,16.90
2019-06-27T14:43:45.283Z,17.25
2019-06-27T14:46:25.553Z,16.00
2019-06-27T14:49:05.598Z,16.50
2019-06-27T14:51:45.185Z,16.65
2019-06-27T14:54:22.468Z,16.37
2019-06-27T14:56:59.535Z,16.62
2019-06-27T14:59:39.238Z,16.05
2019-06-27T15:02:16.722Z,16.07
2019-06-27T15:04:54.031Z,15.90
2019-06-27T15:07:30.268Z,16.17
2019-06-27T15:10:04.760Z,15.70
2019-06-27T15:12:56.489Z,16.05
2019-06-27T15:15:23.971Z,15.72
2019-06-27T15:18:00.790Z,16.00
2019-06-27T15:20:40.684Z,16.52
2019-06-27T15:23:13.763Z,15.65
2019-06-27T15:25:52.615Z,15.40
2019-06-27T15:28:34.203Z,14.83
2019-06-27T15:31:11.897Z,15.30
2019-06-27T15:33:44.231Z,15.30
2019-06-27T15:36:18.103Z,15.35
2019-06-27T15:38:56.080Z,14.58
2019-06-27T15:41:34.578Z,15.53
2019-06-27T15:44:13.940Z,14.98
2019-06-27T15:46:49.309Z,13.98
2019-06-27T15:49:29.874Z,15.65
2019-06-27T15:51:59.489Z,15.15
2019-06-27T15:54:37.539Z,14.60
2019-06-27T15:57:12.326Z,13.93
2019-06-27T15:59:53.161Z,14.45
2019-06-27T16:02:31.592Z,14.63
2019-06-27T16:05:10.506Z,14.75
2019-06-27T16:07:49.166Z,14.35
2019-06-27T16:10:27.237Z,14.68
2019-06-27T16:13:06.187Z,15.03
2019-06-27T16:15:43.263Z,15.32
2019-06-27T16:18:18.511Z,15.20
2019-06-27T16:20:57.523Z,14.35
2019-06-27T16:23:33.885Z,15.08
2019-06-27T16:26:08.885Z,14.55
2019-06-27T16:28:46.652Z,14.40
2019-06-27T16:31:24.119Z,13.68
2019-06-27T16:34:02.214Z,13.38
2019-06-27T16:36:38.494Z,14.63
2019-06-27T16:39:17.243Z,13.55
2019-06-27T16:41:52.227Z,14.30
2019-06-27T16:44:26.958Z,13.15
2019-06-27T16:47:03.263Z,13.72
2019-06-27T16:49:42.091Z,14.23
2019-06-27T16:52:21.979Z,14.13
2019-06-27T16:55:01.815Z,14.40
2019-06-27T16:57:35.688Z,14.13
2019-06-27T17:00:10.620Z,13.88
2019-06-27T17:02:49.206Z,14.85
2019-06-27T17:05:23.262Z,14.43
2019-06-27T17:08:00.199Z,14.58
2019-06-27T17:10:40.155Z,14.90
2019-06-27T17:13:20.167Z,14.98
2019-06-27T17:16:00.016Z,14.13
2019-06-27T17:18:38.487Z,15.00
2019-06-27T17:21:09.187Z,14.87
2019-06-27T17:23:43.536Z,14.40
2019-06-27T17:26:17.608Z,14.28
2019-06-27T17:28:53.260Z,14.23
2019-06-27T17:31:26.555Z,12.90
2019-06-27T17:33:57.216Z,12.93
2019-06-27T17:36:38.693Z,12.23
2019-06-27T17:39:17.548Z,12.13
2019-06-27T17:41:52.505Z,12.07
2019-06-27T17:44:29.650Z,11.93
2019-06-27T17:47:03.260Z,12.18
2019-06-27T17:49:43.260Z,12.10
2019-06-27T17:52:12.889Z,11.57
2019-06-27T17:54:53.259Z,11.38
2019-06-27T17:57:28.599Z,11.90
2019-06-27T18:00:04.150Z,11.60
2019-06-27T18:02:35.598Z,11.25
2019-06-27T18:05:10.396Z,11.90
2019-06-27T18:07:45.460Z,11.65
2019-06-27T18:10:21.304Z,11.63
2019-06-27T18:12:59.229Z,10.90
2019-06-27T18:15:39.052Z,10.13
2019-06-27T18:18:16.076Z,10.63
2019-06-27T18:20:52.906Z,10.08
2019-06-27T18:23:34.991Z,10.23
2019-06-27T18:26:12.190Z,9.25
2019-06-27T18:28:45.167Z,9.50
2019-06-27T18:31:24.133Z,8.93
2019-06-27T18:34:01.064Z,8.68
2019-06-27T18:36:37.143Z,8.03
2019-06-27T18:39:17.278Z,7.50
2019-06-27T18:41:52.030Z,7.42
2019-06-27T18:44:32.758Z,6.47
2019-06-27T18:47:09.714Z,6.37
2019-06-27T18:49:46.829Z,6.00
2019-06-27T18:52:24.766Z,6.37
2019-06-27T18:55:00.944Z,5.53
2019-06-27T18:57:43.257Z,5.57
2019-06-27T19:00:21.101Z,5.50
2019-06-27T19:02:59.974Z,4.37
2019-06-27T19:05:34.592Z,4.30
2019-06-27T19:08:12.419Z,4.07
2019-06-27T19:10:45.835Z,3.47
2019-06-27T19:13:22.591Z,3.97
2019-06-27T19:15:59.358Z,3.90
2019-06-27T19:18:47.155Z,3.60
2019-06-27T19:21:25.112Z,3.50
2019-06-27T19:24:11.832Z,3.20
2019-06-27T19:26:47.555Z,3.10
2019-06-27T19:29:27.411Z,3.37
2019-06-27T19:32:04.269Z,3.20
2019-06-27T19:34:39.857Z,2.67
2019-06-27T19:37:18.361Z,3.17
2019-06-27T19:40:00.424Z,3.03
2019-06-27T19:42:37.257Z,3.10
2019-06-27T19:45:15.330Z,3.03
2019-06-27T19:47:52.344Z,3.67
2019-06-27T19:50:32.156Z,3.20
2019-06-27T19:53:13.258Z,3.57
2019-06-27T19:55:49.008Z,3.43
2019-06-27T19:58:28.906Z,3.30
2019-06-27T20:01:07.966Z,3.30
2019-06-27T20:03:41.500Z,2.70
2019-06-27T20:06:18.040Z,3.00
2019-06-27T20:08:57.729Z,2.80
2019-06-27T20:11:32.829Z,2.87
2019-06-27T20:14:11.987Z,3.10
2019-06-27T20:16:49.415Z,2.70
2019-06-27T20:19:29.648Z,2.70
2019-06-27T20:22:05.577Z,2.60
2019-06-27T20:24:45.498Z,2.57
2019-06-27T20:27:25.498Z,2.70
2019-06-27T20:30:00.555Z,2.80
2019-06-27T20:32:41.077Z,2.33
2019-06-27T20:35:18.294Z,2.73
2019-06-27T20:37:51.933Z,2.60
2019-06-27T20:40:29.100Z,2.70
2019-06-27T20:43:09.999Z,2.30
2019-06-27T20:45:48.853Z,2.73
2019-06-27T20:48:26.093Z,2.37
2019-06-27T20:51:03.262Z,2.50
2019-06-27T20:53:41.127Z,2.40
2019-06-27T20:56:16.660Z,2.43
2019-06-27T20:58:54.919Z,2.40
2019-06-27T21:01:37.075Z,2.47
2019-06-27T21:04:16.624Z,2.60
2019-06-27T21:06:54.088Z,2.17
2019-06-27T21:09:32.595Z,1.80
2019-06-27T21:12:12.429Z,1.97
2019-06-27T21:14:51.382Z,2.30
2019-06-27T21:17:33.843Z,2.10
2019-06-27T21:20:14.383Z,2.70
2019-06-27T21:22:56.069Z,2.40
2019-06-27T21:25:39.066Z,2.30
2019-06-27T21:28:14.783Z,2.50
2019-06-27T21:30:49.949Z,2.40
2019-06-27T21:33:26.718Z,2.40
2019-06-27T21:36:04.961Z,2.67
2019-06-27T21:38:44.521Z,2.47
2019-06-27T21:41:22.209Z,2.87
2019-06-27T21:44:00.121Z,3.00
2019-06-27T21:46:39.831Z,2.70
2019-06-27T21:49:16.420Z,2.63
2019-06-27T21:51:53.260Z,2.80
2019-06-27T21:54:31.069Z,2.60
2019-06-27T21:57:09.282Z,2.50
2019-06-27T21:59:46.753Z,2.43
2019-06-27T22:02:23.260Z,2.57
2019-06-27T22:05:03.235Z,2.50
2019-06-27T22:07:41.530Z,2.30
2019-06-27T22:10:19.212Z,2.30
2019-06-27T22:12:56.663Z,2.20
2019-06-27T22:15:30.990Z,2.13
2019-06-27T22:18:06.056Z,2.40
2019-06-27T22:20:39.650Z,2.40
2019-06-27T22:23:17.277Z,2.07
2019-06-27T22:25:56.855Z,2.20
2019-06-27T22:28:34.100Z,2.30
2019-06-27T22:31:12.565Z,2.17
2019-06-27T22:33:58.495Z,2.10
2019-06-27T22:36:30.843Z,2.20
2019-06-27T22:39:36.237Z,2.30
2019-06-27T22:42:19.270Z,2.23
2019-06-27T22:45:16.174Z,2.27
2019-06-27T22:48:13.094Z,2.20
2019-06-27T22:50:56.533Z,2.10
2019-06-27T22:53:36.068Z,2.10
2019-06-27T22:56:15.267Z,1.90
2019-06-27T22:58:47.901Z,2.40
2019-06-27T23:01:26.276Z,2.13
2019-06-27T23:04:04.344Z,2.20
2019-06-27T23:06:43.260Z,1.87
2019-06-27T23:09:20.705Z,2.07
2019-06-27T23:12:00.542Z,2.20
2019-06-27T23:14:41.968Z,2.10
2019-06-27T23:17:16.848Z,2.00
2019-06-27T23:19:56.117Z,2.23
2019-06-27T23:22:30.098Z,2.30
2019-06-27T23:25:07.108Z,2.10
2019-06-27T23:27:45.663Z,2.20
2019-06-27T23:30:23.260Z,2.10
2019-06-27T23:33:02.421Z,2.03
2019-06-27T23:35:41.042Z,2.23
2019-06-27T23:38:18.217Z,2.00
2019-06-27T23:40:54.427Z,2.10
2019-06-27T23:43:37.201Z,1.97
2019-06-27T23:46:16.447Z,2.20
2019-06-27T23:48:58.048Z,2.20
2019-06-27T23:51:35.461Z,1.83
2019-06-27T23:54:12.183Z,2.00
2019-06-27T23:56:47.352Z,2.40
2019-06-27T23:59:24.668Z,2.50
